Aérodrome :
LOGIN :

S'inscrire | Disclaimer

   EN    FR    IT 

 










Légende :    VFR   VFR Marginal   IFR   IFR Intensif   IFR Très Intensif
Visi : 
Plafond : 
>= 8 km
>= 3000ft
5 à 8 km
1000 à 3000 ft
1500m à 5 km
500 à 1000 ft
800 à 1500m
200 à 500 ft
< 800m
< 200 ft
Symboles :   Orages  Brouillard  Fortes neiges  Fortes précipitations  Vent > 20 kt
SIGMETs :   Divers  Orages  Givrage  Turbulence  Onde Orograph.  Cendres Volcan.







- Altitude de l'aérodrome : 325 ft
- Code IATA : BES
- Voir les cartes d'approche


LFRB - Brest

DERNIER METAR :
  • 250430Z AUTO 29004KT 9999 FEW016 BKN022 OVC027 08/07 Q1017 NOSIG

METARs EXPIRÉS :
  • 250400Z AUTO 30004KT 280V340 9999 BKN017 OVC022 08/08 Q1017 NOSIG
  • 250330Z AUTO 31003KT 9999 BKN015 BKN042 08/08 Q1016 BECMG 25010KT
  • 250300Z AUTO VRB02KT 9999 SCT018 BKN040 08/08 Q1016 NOSIG
  • 250230Z AUTO 31003KT 9999 BKN017 BKN035 09/08 Q1016 BECMG 25010KT
  • 250200Z AUTO 33005KT 9999 FEW008 BKN013 BKN031 09/09 Q1016 BECMG 25010KT BKN015

TAF TAF LFRB
Valide du 25 à 00h jusqu'au 26 à 06h UTC


242300Z 2500/2606 25010KT 3000 DZ OVC003
BECMG 2501/2504 9999 NSW BKN015
TEMPO 2512/2516 27015G25KT
ATIS : +33 2 98 32 02 71
Pas de NOTAMs connus pour ce terrain.



MET'MAP, la Météo Aéronautique d'un coup d'oeil ! - Copyright ORBIFLY Décembre 2007 - Disclaimer

ORBIFLY MET'MAP TEAM :

Programmation & Développement : Alexandra Zaïnal
Conception & Développement : Baudouin d'Aumeries
Co-Programmation & Développement : Marc-Olivier Méhu
Soutien technique & logistique : Manuel Goepfert

Contact : metmap@orbifly.com




SOURCES & CREDITS :

   NOAA